Hilger, Montana
Current Conditions -  °F | °C
As of 8:54 AM on Saturday 25 Oct 2014 (Local Time) from KLWT Reporting Station
Clear Clear  
Wind Chill: 39°   Ceiling: Unl
Heat Index: 43°   Visibility: 10mi
Dew Point: 37°   Wind: 6mph
Humidity: 80%   Direction: 160°SSE
Pressure: 29.99"   Gusts: NA
Location:  47.25°N, 109.36°W
Report Text: KLWT 251454Z AUTO 16005KT 10SM CLR 06/03 A2999 RMK AO2 SLP158 T00610028 56012
Loading
Personal Weather Stations






























Interactive Weather Map New forecast layout! Learn more

10-Day Weather Forecast

Advertisements
Track Severe Weather on mobile